createdAt,value
2022-12-31T00:01:17.493Z,6.20
2022-12-31T00:03:47.411Z,6.20
2022-12-31T00:06:18.821Z,6.30
2022-12-31T00:08:50.016Z,6.40
2022-12-31T00:11:19.268Z,6.40
2022-12-31T00:13:48.899Z,6.50
2022-12-31T00:16:19.787Z,6.50
2022-12-31T00:18:50.399Z,6.60
2022-12-31T00:21:20.388Z,6.70
2022-12-31T00:23:51.089Z,6.70
2022-12-31T00:26:24.798Z,6.80
2022-12-31T00:28:55.493Z,6.80
2022-12-31T00:31:26.977Z,6.80
2022-12-31T00:33:57.031Z,6.90
2022-12-31T00:36:28.542Z,6.90
2022-12-31T00:39:00.735Z,7.00
2022-12-31T00:41:30.563Z,7.00
2022-12-31T00:43:59.846Z,7.00
2022-12-31T00:46:29.290Z,7.00
2022-12-31T00:48:58.139Z,7.00
2022-12-31T00:51:28.617Z,7.00
2022-12-31T00:53:59.800Z,7.10
2022-12-31T00:56:31.401Z,7.00
2022-12-31T00:59:01.083Z,7.10
2022-12-31T01:01:32.482Z,7.10
2022-12-31T01:04:04.119Z,7.10
2022-12-31T01:06:33.413Z,7.10
2022-12-31T01:09:04.153Z,7.10
2022-12-31T01:11:33.159Z,7.10
2022-12-31T01:14:03.778Z,7.10
2022-12-31T01:16:34.562Z,7.10
2022-12-31T01:19:07.001Z,7.10
2022-12-31T01:21:37.002Z,7.10
2022-12-31T01:24:09.136Z,7.10
2022-12-31T01:26:38.727Z,7.10
2022-12-31T01:29:09.292Z,7.10
2022-12-31T01:31:39.556Z,7.20
2022-12-31T01:34:09.597Z,7.20
2022-12-31T01:36:39.465Z,7.20
2022-12-31T01:39:12.255Z,7.20
2022-12-31T01:41:43.916Z,7.30
2022-12-31T01:44:51.740Z,7.30
2022-12-31T01:47:30.770Z,7.30
2022-12-31T01:50:05.129Z,7.30
2022-12-31T01:52:38.605Z,7.30
2022-12-31T01:55:16.599Z,7.30
2022-12-31T01:57:47.336Z,7.30
2022-12-31T02:00:16.793Z,7.40
2022-12-31T02:02:46.231Z,7.40
2022-12-31T02:05:23.871Z,7.40
2022-12-31T02:07:54.621Z,7.40
2022-12-31T02:10:25.323Z,7.40
2022-12-31T02:12:54.426Z,7.40
2022-12-31T02:15:30.836Z,7.50
2022-12-31T02:18:04.776Z,7.50
2022-12-31T02:20:55.596Z,7.50
2022-12-31T02:24:03.869Z,7.50
2022-12-31T02:26:55.879Z,7.50
2022-12-31T02:29:58.631Z,7.50
2022-12-31T02:32:38.462Z,7.50
2022-12-31T02:35:12.091Z,7.50
2022-12-31T02:37:44.510Z,7.50
2022-12-31T02:40:18.637Z,7.50
2022-12-31T02:42:54.878Z,7.50
2022-12-31T02:45:30.744Z,7.50
2022-12-31T02:48:25.585Z,7.50
2022-12-31T02:51:04.816Z,7.50
2022-12-31T02:53:55.983Z,7.50
2022-12-31T02:56:29.623Z,7.60
2022-12-31T02:59:21.515Z,7.60
2022-12-31T03:02:15.790Z,7.60
2022-12-31T03:04:50.950Z,7.60
2022-12-31T03:07:23.583Z,7.70
2022-12-31T03:09:52.780Z,7.80
2022-12-31T03:12:41.938Z,7.80
2022-12-31T03:15:20.185Z,7.80
2022-12-31T03:17:57.705Z,7.80
2022-12-31T03:20:48.884Z,7.90
2022-12-31T03:23:21.308Z,7.90
2022-12-31T03:25:49.456Z,7.90
2022-12-31T03:28:20.384Z,7.90
2022-12-31T03:30:51.652Z,7.90
2022-12-31T03:33:22.129Z,8.00
2022-12-31T03:35:53.791Z,8.00
2022-12-31T03:38:23.003Z,8.00
2022-12-31T03:40:54.197Z,8.00
2022-12-31T03:43:23.177Z,8.10
2022-12-31T03:45:54.034Z,8.00
2022-12-31T03:48:24.318Z,8.00
2022-12-31T03:50:54.785Z,8.00
2022-12-31T03:53:24.626Z,8.00
2022-12-31T03:55:53.858Z,8.00
2022-12-31T03:58:23.544Z,8.10
2022-12-31T04:00:52.722Z,8.10
2022-12-31T04:03:21.823Z,8.10
2022-12-31T04:05:56.073Z,8.10
2022-12-31T04:08:25.665Z,8.10
2022-12-31T04:10:54.641Z,8.10
2022-12-31T04:13:23.564Z,8.10
2022-12-31T04:15:53.120Z,8.10
2022-12-31T04:18:22.196Z,8.10
2022-12-31T04:20:51.059Z,8.10
2022-12-31T04:23:21.558Z,8.10
2022-12-31T04:25:50.551Z,8.10
2022-12-31T04:28:19.539Z,8.00
2022-12-31T04:30:48.654Z,8.00
2022-12-31T04:33:17.671Z,8.00
2022-12-31T04:35:46.613Z,8.00
2022-12-31T04:38:15.720Z,8.00
2022-12-31T04:41:01.823Z,8.10
2022-12-31T04:43:31.949Z,8.00
2022-12-31T04:46:01.120Z,8.00
2022-12-31T04:48:29.924Z,8.00
2022-12-31T04:50:58.825Z,7.90
2022-12-31T04:53:27.873Z,8.00
2022-12-31T04:55:58.452Z,8.00
2022-12-31T04:58:27.697Z,8.00
2022-12-31T05:00:57.044Z,8.00
2022-12-31T05:03:27.426Z,8.00
2022-12-31T05:06:01.576Z,7.90
2022-12-31T05:08:30.617Z,7.90
2022-12-31T05:11:01.245Z,7.90
2022-12-31T05:13:33.402Z,7.90
2022-12-31T05:16:03.476Z,7.90
2022-12-31T05:18:33.367Z,7.90
2022-12-31T05:21:02.544Z,7.90
2022-12-31T05:23:31.810Z,8.00
2022-12-31T05:26:02.527Z,7.90
2022-12-31T05:28:32.650Z,7.90
2022-12-31T05:31:02.241Z,7.90
2022-12-31T05:33:31.330Z,7.90
2022-12-31T05:36:00.328Z,7.90
2022-12-31T05:38:29.451Z,7.80
2022-12-31T05:41:04.434Z,7.80
2022-12-31T05:43:33.736Z,7.80
2022-12-31T05:46:03.256Z,7.80
2022-12-31T05:48:32.916Z,7.80
2022-12-31T05:51:01.807Z,7.70
2022-12-31T05:53:30.788Z,7.70
2022-12-31T05:55:59.765Z,7.80
2022-12-31T05:58:30.257Z,7.80
2022-12-31T06:00:59.319Z,7.90
2022-12-31T06:03:28.518Z,7.90
2022-12-31T06:05:57.578Z,7.90
2022-12-31T06:08:26.624Z,7.90
2022-12-31T06:10:55.640Z,8.00
2022-12-31T06:13:24.504Z,8.00
2022-12-31T06:15:54.976Z,8.10
2022-12-31T06:18:24.151Z,8.10
2022-12-31T06:20:53.281Z,8.10
2022-12-31T06:23:21.982Z,8.10
2022-12-31T06:25:51.412Z,8.20
2022-12-31T06:28:20.820Z,8.20
2022-12-31T06:30:50.277Z,8.20
2022-12-31T06:33:21.809Z,8.20
2022-12-31T06:35:50.738Z,8.30
2022-12-31T06:38:19.708Z,8.30
2022-12-31T06:40:48.613Z,8.20
2022-12-31T06:43:17.352Z,8.30
2022-12-31T06:45:46.441Z,8.20
2022-12-31T06:48:15.491Z,8.30
2022-12-31T06:50:46.097Z,8.20
2022-12-31T06:53:15.108Z,8.30
2022-12-31T06:55:44.719Z,8.30
2022-12-31T06:58:15.598Z,8.30
2022-12-31T07:00:53.880Z,8.30
2022-12-31T07:03:34.479Z,8.30
2022-12-31T07:06:11.470Z,8.20
2022-12-31T07:08:50.429Z,8.20
2022-12-31T07:11:26.168Z,8.30
2022-12-31T07:14:12.936Z,8.50
2022-12-31T07:16:57.598Z,8.30
2022-12-31T07:19:36.610Z,8.30
2022-12-31T07:22:11.392Z,8.30
2022-12-31T07:24:41.033Z,8.20
2022-12-31T07:27:36.194Z,8.20
2022-12-31T07:30:08.377Z,8.30
2022-12-31T07:32:53.616Z,8.40
2022-12-31T07:35:34.521Z,8.40
2022-12-31T07:38:13.886Z,8.40
2022-12-31T07:40:57.731Z,8.50
2022-12-31T07:43:33.973Z,8.50
2022-12-31T07:46:12.580Z,8.50
2022-12-31T07:48:41.951Z,8.60
2022-12-31T07:51:12.696Z,8.70
2022-12-31T07:53:43.075Z,8.70
2022-12-31T07:56:12.239Z,8.80
2022-12-31T07:58:54.648Z,8.90
2022-12-31T08:01:34.697Z,9.00
2022-12-31T08:04:08.592Z,9.10
2022-12-31T08:06:47.828Z,9.10
2022-12-31T08:09:31.255Z,9.10
2022-12-31T08:12:02.302Z,9.20
2022-12-31T08:14:32.408Z,9.20
2022-12-31T08:17:01.844Z,9.30
2022-12-31T08:19:32.974Z,9.40
2022-12-31T08:22:20.655Z,9.40
2022-12-31T08:25:02.143Z,9.50
2022-12-31T08:27:40.573Z,9.60
2022-12-31T08:30:11.998Z,9.60
2022-12-31T08:32:47.024Z,9.60
2022-12-31T08:35:28.425Z,9.60
2022-12-31T08:38:04.878Z,9.60
2022-12-31T08:40:45.219Z,9.60
2022-12-31T08:43:29.465Z,9.70
2022-12-31T08:45:59.275Z,9.70
2022-12-31T08:48:34.202Z,9.80
2022-12-31T08:51:03.416Z,9.90
2022-12-31T08:53:32.918Z,9.90
2022-12-31T08:56:09.052Z,10.10
2022-12-31T08:58:46.918Z,10.20
2022-12-31T09:01:19.172Z,10.30
2022-12-31T09:04:03.698Z,10.40
2022-12-31T09:06:37.369Z,10.60
2022-12-31T09:09:17.457Z,10.60
2022-12-31T09:11:58.774Z,10.70
2022-12-31T09:14:47.029Z,10.80
2022-12-31T09:17:36.599Z,10.90
2022-12-31T09:20:06.904Z,11.00
2022-12-31T09:22:36.265Z,11.00
2022-12-31T09:25:05.804Z,11.10
2022-12-31T09:27:43.433Z,11.10
2022-12-31T09:30:14.546Z,11.20
2022-12-31T09:33:00.519Z,11.30
2022-12-31T09:35:38.294Z,11.30
2022-12-31T09:38:14.915Z,11.40
2022-12-31T09:41:07.092Z,11.40
2022-12-31T09:44:28.685Z,11.60
2022-12-31T09:47:46.069Z,11.70
2022-12-31T09:50:41.836Z,11.80
2022-12-31T09:53:40.437Z,11.80
2022-12-31T09:56:18.238Z,11.70
2022-12-31T09:58:56.940Z,11.60
2022-12-31T10:01:39.278Z,11.70
2022-12-31T10:04:41.108Z,11.70
2022-12-31T10:07:29.780Z,11.80
2022-12-31T10:10:08.917Z,11.80
2022-12-31T10:12:48.183Z,11.80
2022-12-31T10:15:36.264Z,11.90
2022-12-31T10:18:15.902Z,11.90
2022-12-31T10:20:56.104Z,11.90
2022-12-31T10:23:54.168Z,12.00
2022-12-31T10:26:39.060Z,12.00
2022-12-31T10:29:25.013Z,12.00
2022-12-31T10:32:05.523Z,12.10
2022-12-31T10:34:53.300Z,12.10
2022-12-31T10:37:26.151Z,12.20
2022-12-31T10:40:07.006Z,12.30
2022-12-31T10:43:07.702Z,12.40
2022-12-31T10:46:07.172Z,12.40
2022-12-31T10:49:27.984Z,12.50
2022-12-31T10:52:44.153Z,12.60
2022-12-31T10:56:11.677Z,12.80
2022-12-31T10:59:11.216Z,13.20
2022-12-31T11:01:50.332Z,13.30
2022-12-31T11:05:02.112Z,13.50
2022-12-31T11:07:54.867Z,13.80
2022-12-31T11:11:05.471Z,13.90
2022-12-31T11:14:16.183Z,14.00
2022-12-31T11:17:01.660Z,14.20
2022-12-31T11:19:39.993Z,14.20
2022-12-31T11:22:30.184Z,14.20
2022-12-31T11:25:18.859Z,14.10
2022-12-31T11:28:05.356Z,14.20
2022-12-31T11:30:40.516Z,14.30
2022-12-31T11:33:22.404Z,14.30
2022-12-31T11:36:10.690Z,14.30
2022-12-31T11:38:44.670Z,14.30
2022-12-31T11:41:22.705Z,14.40
2022-12-31T11:44:01.913Z,14.40
2022-12-31T11:46:55.216Z,14.30
2022-12-31T11:49:49.061Z,14.30
2022-12-31T11:52:51.560Z,14.40
2022-12-31T11:55:47.307Z,14.30
2022-12-31T11:58:20.495Z,14.30
2022-12-31T12:00:57.266Z,14.30
2022-12-31T12:03:26.214Z,14.30
2022-12-31T12:05:57.503Z,14.30
2022-12-31T12:08:27.499Z,14.40
2022-12-31T12:11:04.737Z,14.40
2022-12-31T12:13:36.404Z,14.40
2022-12-31T12:16:09.207Z,14.50
2022-12-31T12:18:43.776Z,14.50
2022-12-31T12:21:14.785Z,14.50
2022-12-31T12:23:55.794Z,14.60
2022-12-31T12:26:31.261Z,14.70
2022-12-31T12:29:10.499Z,14.70
2022-12-31T12:31:40.356Z,14.70
2022-12-31T12:34:24.746Z,14.80
2022-12-31T12:36:54.046Z,14.80
2022-12-31T12:39:26.328Z,14.80
2022-12-31T12:42:03.759Z,14.80
2022-12-31T12:44:35.970Z,14.70
2022-12-31T12:47:07.717Z,14.70
2022-12-31T12:49:41.371Z,14.60
2022-12-31T12:52:59.540Z,14.60
2022-12-31T12:55:38.202Z,14.50
2022-12-31T12:58:19.491Z,14.50
2022-12-31T13:00:55.933Z,14.40
2022-12-31T13:07:07.155Z,14.40
2022-12-31T13:09:49.263Z,14.40
2022-12-31T13:12:24.016Z,14.50
2022-12-31T13:15:00.639Z,14.40
2022-12-31T13:18:01.496Z,14.50
2022-12-31T13:20:36.743Z,14.50
2022-12-31T13:23:16.306Z,14.50
2022-12-31T13:25:57.846Z,14.60
2022-12-31T13:28:27.783Z,14.60
2022-12-31T13:31:06.610Z,14.70
2022-12-31T13:33:41.316Z,14.80
2022-12-31T13:36:15.334Z,14.90
2022-12-31T13:38:49.330Z,14.90
2022-12-31T13:41:24.182Z,15.00
2022-12-31T13:43:58.221Z,15.00
2022-12-31T13:46:41.975Z,15.10
2022-12-31T13:49:20.317Z,15.10
2022-12-31T13:51:51.479Z,15.20
2022-12-31T13:54:32.235Z,15.30
2022-12-31T13:57:06.040Z,15.40
2022-12-31T13:59:38.994Z,15.50
2022-12-31T14:02:25.869Z,15.50
2022-12-31T14:05:01.283Z,15.50
2022-12-31T14:07:40.396Z,15.50
2022-12-31T14:10:15.441Z,15.40
2022-12-31T14:12:50.918Z,15.40
2022-12-31T14:15:26.812Z,15.40
2022-12-31T14:18:04.877Z,15.50
2022-12-31T14:20:45.435Z,15.40
2022-12-31T14:23:22.407Z,15.40
2022-12-31T14:25:54.971Z,15.40
2022-12-31T14:28:29.266Z,15.40
2022-12-31T14:31:05.420Z,15.40
2022-12-31T14:33:48.214Z,15.30
2022-12-31T14:36:40.920Z,15.30
2022-12-31T14:39:23.432Z,15.30
2022-12-31T14:42:05.306Z,15.30
2022-12-31T14:44:47.284Z,15.30
2022-12-31T14:47:28.188Z,15.30
2022-12-31T14:50:06.317Z,15.30
2022-12-31T14:52:49.880Z,15.20
2022-12-31T14:55:28.440Z,15.20
2022-12-31T14:58:27.182Z,15.30
2022-12-31T15:00:55.093Z,15.20
2022-12-31T15:03:27.334Z,15.20
2022-12-31T15:06:03.225Z,15.30
2022-12-31T15:08:48.227Z,15.40
2022-12-31T15:11:31.519Z,15.40
2022-12-31T15:14:22.560Z,15.40
2022-12-31T15:16:59.392Z,15.50
2022-12-31T15:20:16.690Z,15.50
2022-12-31T15:22:48.218Z,15.50
2022-12-31T15:25:28.835Z,15.50
2022-12-31T15:27:59.416Z,15.50
2022-12-31T15:30:41.320Z,15.50
2022-12-31T15:33:21.645Z,15.50
2022-12-31T15:35:52.614Z,15.50
2022-12-31T15:38:35.626Z,15.50
2022-12-31T15:41:25.933Z,15.50
2022-12-31T15:43:59.541Z,15.40
2022-12-31T15:46:34.289Z,15.30
2022-12-31T15:49:10.279Z,15.10
2022-12-31T15:51:47.755Z,15.00
2022-12-31T15:54:26.551Z,14.90
2022-12-31T15:56:57.240Z,14.80
2022-12-31T15:59:28.629Z,14.70
2022-12-31T16:01:58.424Z,14.50
2022-12-31T16:04:29.328Z,14.40
2022-12-31T16:07:01.252Z,14.30
2022-12-31T16:09:34.185Z,14.30
2022-12-31T16:12:11.524Z,14.40
2022-12-31T16:14:44.840Z,14.40
2022-12-31T16:17:27.893Z,14.50
2022-12-31T16:19:58.396Z,14.60
2022-12-31T16:22:29.686Z,14.50
2022-12-31T16:25:29.548Z,14.50
2022-12-31T16:27:52.911Z,14.40
2022-12-31T16:30:23.815Z,14.40
2022-12-31T16:32:54.631Z,14.50
2022-12-31T16:35:26.152Z,14.50
2022-12-31T16:38:13.730Z,14.50
2022-12-31T16:40:44.292Z,14.50
2022-12-31T16:43:31.480Z,14.50
2022-12-31T16:46:10.521Z,14.50
2022-12-31T16:48:39.859Z,14.50
2022-12-31T16:51:14.843Z,14.40
2022-12-31T16:53:43.754Z,14.40
2022-12-31T16:56:12.553Z,14.40
2022-12-31T16:58:45.669Z,14.40
2022-12-31T17:01:19.424Z,14.40
2022-12-31T17:03:52.847Z,14.50
2022-12-31T17:06:23.334Z,14.50
2022-12-31T17:09:06.498Z,14.40
2022-12-31T17:11:39.333Z,14.50
2022-12-31T17:14:16.696Z,14.60
2022-12-31T17:17:03.678Z,14.60
2022-12-31T17:19:40.655Z,14.60
2022-12-31T17:22:14.210Z,14.70
2022-12-31T17:24:43.475Z,14.60
2022-12-31T17:27:12.665Z,14.70
2022-12-31T17:29:44.223Z,14.70
2022-12-31T17:32:30.834Z,14.70
2022-12-31T17:34:59.795Z,14.70
2022-12-31T17:37:30.547Z,14.80
2022-12-31T17:40:40.610Z,14.80
2022-12-31T17:42:51.118Z,14.70
2022-12-31T17:45:23.583Z,14.70
2022-12-31T17:47:55.629Z,14.70
2022-12-31T17:50:26.483Z,14.70
2022-12-31T17:52:58.657Z,14.70
2022-12-31T17:55:28.176Z,14.70
2022-12-31T17:57:59.180Z,14.70
2022-12-31T18:00:29.594Z,14.70
2022-12-31T18:02:58.576Z,14.70
2022-12-31T18:05:27.814Z,14.70
2022-12-31T18:07:56.920Z,14.70
2022-12-31T18:10:27.364Z,14.70
2022-12-31T18:12:56.536Z,14.70
2022-12-31T18:15:26.602Z,14.60
2022-12-31T18:17:57.055Z,14.60
2022-12-31T18:20:26.660Z,14.60
2022-12-31T18:22:56.343Z,14.60
2022-12-31T18:25:25.319Z,14.50
2022-12-31T18:27:54.386Z,14.50
2022-12-31T18:30:23.517Z,14.50
2022-12-31T18:32:52.767Z,14.40
2022-12-31T18:38:14.598Z,14.40
2022-12-31T18:40:46.772Z,14.30
2022-12-31T18:43:20.416Z,14.30
2022-12-31T18:45:50.152Z,14.30
2022-12-31T18:48:19.972Z,14.20
2022-12-31T18:50:50.552Z,14.10
2022-12-31T18:53:21.146Z,14.00
2022-12-31T18:55:52.236Z,13.90
2022-12-31T18:58:21.697Z,13.70
2022-12-31T19:00:52.399Z,13.70
2022-12-31T19:03:23.727Z,13.60
2022-12-31T19:05:54.301Z,13.60
2022-12-31T19:08:24.626Z,13.50
2022-12-31T19:10:54.206Z,13.50
2022-12-31T19:13:23.338Z,13.50
2022-12-31T19:15:55.636Z,13.60
2022-12-31T19:18:24.429Z,13.60
2022-12-31T19:20:54.857Z,13.70
2022-12-31T19:23:24.033Z,13.70
2022-12-31T19:25:53.103Z,13.70
2022-12-31T19:28:24.236Z,13.80
2022-12-31T19:30:54.115Z,13.80
2022-12-31T19:33:23.175Z,13.80
2022-12-31T19:35:52.189Z,13.90
2022-12-31T19:38:24.177Z,13.90
2022-12-31T19:40:54.558Z,13.90
2022-12-31T19:43:24.756Z,14.00
2022-12-31T19:45:54.139Z,14.00
2022-12-31T19:48:32.334Z,14.00
2022-12-31T19:51:02.068Z,14.00
2022-12-31T19:53:32.624Z,14.00
2022-12-31T19:56:01.657Z,14.10
2022-12-31T19:58:30.696Z,14.10
2022-12-31T20:01:03.112Z,14.20
2022-12-31T20:03:33.681Z,14.10
2022-12-31T20:06:05.194Z,14.20
2022-12-31T20:08:36.164Z,14.10
2022-12-31T20:11:12.492Z,14.20
2022-12-31T20:13:41.967Z,14.10
2022-12-31T20:16:13.148Z,14.10
2022-12-31T20:18:43.228Z,14.00
2022-12-31T20:21:13.765Z,14.00
2022-12-31T20:23:44.151Z,13.90
2022-12-31T20:26:12.907Z,13.80
2022-12-31T20:28:42.066Z,13.80
2022-12-31T20:31:13.416Z,13.80
2022-12-31T20:33:42.609Z,13.80
2022-12-31T20:36:14.497Z,13.80
2022-12-31T20:38:45.403Z,13.90
2022-12-31T20:41:16.618Z,13.90
2022-12-31T20:43:46.906Z,14.00
2022-12-31T20:46:18.906Z,13.90
2022-12-31T20:48:49.096Z,14.00
2022-12-31T20:51:19.343Z,13.90
2022-12-31T20:53:51.737Z,13.90
2022-12-31T20:56:20.809Z,13.90
2022-12-31T20:58:50.058Z,14.00
2022-12-31T21:01:20.324Z,13.90
2022-12-31T21:04:06.947Z,13.90
2022-12-31T21:06:37.244Z,13.80
2022-12-31T21:09:09.400Z,13.80
2022-12-31T21:11:55.915Z,13.80
2022-12-31T21:14:24.848Z,13.70
2022-12-31T21:16:53.802Z,13.80
2022-12-31T21:19:22.890Z,13.70
2022-12-31T21:21:51.869Z,13.60
2022-12-31T21:24:24.287Z,13.60
2022-12-31T21:26:55.648Z,13.60
2022-12-31T21:29:24.699Z,13.60
2022-12-31T21:31:53.774Z,13.60
2022-12-31T21:34:22.828Z,13.60
2022-12-31T21:36:51.839Z,13.60
2022-12-31T21:39:22.275Z,13.60
2022-12-31T21:41:53.979Z,13.60
2022-12-31T21:44:24.530Z,13.60
2022-12-31T21:47:34.037Z,13.50
2022-12-31T21:49:46.212Z,13.50
2022-12-31T21:52:27.477Z,13.50
2022-12-31T21:55:16.232Z,13.50
2022-12-31T21:58:24.040Z,13.40
2022-12-31T22:00:52.996Z,13.40
2022-12-31T22:03:28.809Z,13.50
2022-12-31T22:06:00.353Z,13.50
2022-12-31T22:08:30.433Z,13.40
2022-12-31T22:11:01.063Z,13.50
2022-12-31T22:13:29.936Z,13.40
2022-12-31T22:16:04.674Z,13.30
2022-12-31T22:18:38.726Z,13.30
2022-12-31T22:21:17.737Z,13.30
2022-12-31T22:23:49.123Z,13.20
2022-12-31T22:26:21.311Z,13.10
2022-12-31T22:28:50.875Z,13.10
2022-12-31T22:31:22.756Z,13.00
2022-12-31T22:33:52.174Z,13.00
2022-12-31T22:36:22.675Z,13.00
2022-12-31T22:38:56.090Z,13.00
2022-12-31T22:41:28.260Z,13.00
2022-12-31T22:44:03.709Z,13.00
2022-12-31T22:46:35.184Z,12.90
2022-12-31T22:49:05.433Z,13.00
2022-12-31T22:51:56.046Z,12.90
2022-12-31T22:54:23.639Z,13.00
2022-12-31T22:56:54.588Z,13.10
2022-12-31T22:59:23.947Z,13.10
2022-12-31T23:01:52.899Z,13.10
2022-12-31T23:04:21.880Z,13.10
2022-12-31T23:06:50.828Z,13.10
2022-12-31T23:09:37.007Z,13.10
2022-12-31T23:12:09.195Z,13.20
2022-12-31T23:14:55.705Z,13.20
2022-12-31T23:17:43.699Z,13.30
2022-12-31T23:20:32.474Z,13.30
2022-12-31T23:23:07.272Z,13.30
2022-12-31T23:25:37.657Z,13.40
2022-12-31T23:28:10.365Z,13.50
2022-12-31T23:30:40.697Z,13.60
2022-12-31T23:33:14.262Z,13.60
2022-12-31T23:35:43.304Z,13.70
2022-12-31T23:38:12.150Z,13.70
2022-12-31T23:40:41.396Z,13.80
2022-12-31T23:43:21.458Z,13.90
2022-12-31T23:45:50.940Z,14.00
2022-12-31T23:48:19.821Z,14.00
2022-12-31T23:50:53.738Z,14.10
2022-12-31T23:53:23.996Z,14.10
2022-12-31T23:55:54.078Z,14.00
2022-12-31T23:58:24.523Z,14.00
